Time;durP1;ratioP1;P1;durP2;ratioP2;P2;SDS_P1;SDS_P2;PMS_P1;PMS_P2;Temp;Humidity;BMP_temperature;BMP_pressure;BME280_temperature;BME280_humidity;BME280_pressure;Samples;Min_cycle;Max_cycle;Signal;HPM_P1;HPM_P2
2022/09/30 00:01:53;;;;;;;12.23;7.50;;;9.30;99.90;;;12.59;56.37;96699.66;5023633;28;20046;-48
2022/09/30 00:04:23;;;;;;;12.83;7.03;;;9.30;99.90;;;12.64;56.72;96685.75;5023834;28;20046;-52
2022/09/30 00:06:52;;;;;;;11.43;7.93;;;9.40;99.90;;;12.66;56.60;96698.88;5023606;28;20054;-49
2022/09/30 00:09:21;;;;;;;10.67;7.20;;;9.40;99.90;;;12.63;56.56;96696.59;5023787;28;20042;-48
2022/09/30 00:11:50;;;;;;;15.20;9.30;;;9.40;99.90;;;12.63;56.77;96699.28;5021967;28;20046;-50
2022/09/30 00:14:21;;;;;;;13.07;6.87;;;9.40;99.90;;;12.63;56.88;96704.63;5023708;28;20050;-49
2022/09/30 00:16:49;;;;;;;12.67;7.13;;;9.40;99.90;;;12.61;56.77;96708.28;5022146;28;20053;-49
2022/09/30 00:19:17;;;;;;;10.33;6.93;;;9.30;99.90;;;12.56;57.22;96710.75;5023546;28;20042;-48
2022/09/30 00:21:45;;;;;;;13.20;6.73;;;9.30;99.90;;;12.50;56.94;96706.16;5022463;28;20067;-47
2022/09/30 00:24:13;;;;;;;8.73;6.43;;;9.20;99.90;;;12.49;57.29;96706.38;5023516;28;20050;-48
2022/09/30 00:26:40;;;;;;;9.57;6.17;;;9.20;99.90;;;12.51;57.18;96707.03;5022845;28;20058;-51
2022/09/30 00:29:09;;;;;;;9.37;6.80;;;9.20;99.90;;;12.47;57.33;96709.25;5022722;28;20064;-48
2022/09/30 00:31:38;;;;;;;11.17;6.90;;;9.20;99.90;;;12.48;57.15;96707.41;5023337;28;20049;-47
2022/09/30 00:34:06;;;;;;;12.63;8.23;;;9.20;99.90;;;12.48;57.40;96705.53;5022264;28;20065;-48
2022/09/30 00:36:42;;;;;;;10.73;5.87;;;9.30;99.90;;;12.44;57.21;96706.16;5021572;28;20050;-49
2022/09/30 00:39:15;;;;;;;8.87;6.53;;;9.20;99.90;;;12.38;57.59;96707.75;5023130;28;20046;-50
2022/09/30 00:41:46;;;;;;;10.50;6.13;;;9.10;99.90;;;12.35;57.39;96705.50;5022133;28;20056;-50
2022/09/30 00:44:42;;;;;;;8.47;6.00;;;9.10;99.90;;;12.30;57.30;96699.91;5023177;28;20050;-50
2022/09/30 00:47:44;;;;;;;8.93;5.83;;;9.10;99.90;;;12.28;57.19;96701.94;5021813;28;20052;-47
2022/09/30 00:50:21;;;;;;;9.00;6.30;;;9.10;99.90;;;12.26;57.19;96702.13;5023475;28;20052;-49
2022/09/30 00:53:19;;;;;;;13.13;7.07;;;9.10;99.90;;;12.25;56.90;96707.66;5023725;28;20060;-48
2022/09/30 00:56:06;;;;;;;9.77;6.90;;;9.10;99.90;;;12.23;56.64;96709.69;5028343;28;20064;-51
2022/09/30 00:59:01;;;;;;;10.80;5.73;;;9.00;99.90;;;12.14;56.88;96703.69;5022562;28;20355;-48
2022/09/30 01:01:30;;;;;;;11.20;6.60;;;8.90;99.90;;;12.12;56.97;96700.41;5024728;28;20229;-47
2022/09/30 01:04:04;;;;;;;11.57;6.20;;;8.90;99.90;;;12.08;57.19;96710.63;5022987;28;20042;-48
2022/09/30 01:06:32;;;;;;;10.07;6.67;;;8.90;99.90;;;12.09;57.04;96717.59;5005674;28;20046;-50
2022/09/30 01:09:00;;;;;;;11.33;7.73;;;8.90;99.90;;;12.11;57.01;96720.06;5021346;28;20045;-47
2022/09/30 01:11:28;;;;;;;14.77;7.53;;;8.90;99.90;;;12.12;56.98;96714.56;5022451;28;20050;-48
2022/09/30 01:14:02;;;;;;;10.30;7.37;;;8.90;99.90;;;12.17;57.11;96719.28;5022783;28;20247;-48
2022/09/30 01:16:59;;;;;;;10.27;7.93;;;8.90;99.90;;;12.21;56.90;96717.88;5021194;28;20041;-48
2022/09/30 01:19:38;;;;;;;13.27;8.00;;;9.00;99.90;;;12.22;57.01;96719.56;5022742;28;20066;-47
2022/09/30 01:22:15;;;;;;;11.20;6.83;;;8.90;99.90;;;12.23;57.22;96721.19;5022906;28;20049;-48
2022/09/30 01:25:05;;;;;;;10.57;8.10;;;9.00;99.90;;;12.27;56.92;96718.97;5021653;28;20050;-49
2022/09/30 01:27:54;;;;;;;12.33;8.17;;;9.00;99.90;;;12.29;57.05;96719.59;5022092;28;20052;-49
2022/09/30 01:30:56;;;;;;;9.67;6.90;;;9.10;99.90;;;12.32;57.20;96728.03;5022909;28;20052;-49
2022/09/30 01:33:39;;;;;;;10.33;7.40;;;9.10;99.90;;;12.36;56.92;96721.28;5022558;28;20053;-48
2022/09/30 01:36:50;;;;;;;13.07;7.47;;;9.20;99.90;;;12.33;56.94;96721.69;5023096;28;20064;-48
2022/09/30 01:39:36;;;;;;;13.60;7.73;;;9.10;99.90;;;12.42;57.22;96727.69;5021756;28;20077;-49
2022/09/30 01:42:39;;;;;;;14.87;8.83;;;9.20;99.90;;;12.44;57.02;96722.97;5022236;28;20046;-49
2022/09/30 01:46:02;;;;;;;13.87;8.57;;;9.20;99.90;;;12.45;57.10;96723.81;5022324;28;20046;-51
2022/09/30 01:48:52;;;;;;;14.57;8.17;;;9.30;99.90;;;12.47;57.23;96727.94;5039070;28;20355;-50
2022/09/30 01:51:44;;;;;;;17.13;9.70;;;9.30;99.90;;;12.47;57.12;96735.94;5040176;28;20056;-49
2022/09/30 01:55:02;;;;;;;14.83;9.80;;;9.30;99.90;;;12.50;57.30;96737.38;5024113;28;20053;-47
2022/09/30 01:58:08;;;;;;;20.40;12.90;;;9.30;99.90;;;12.51;57.03;96726.53;5009801;28;20344;-48
2022/09/30 02:00:41;;;;;;;12.77;9.23;;;9.30;99.90;;;12.57;57.55;96738.25;5024583;28;20181;-50
2022/09/30 02:03:23;;;;;;;14.83;7.87;;;9.40;99.90;;;12.59;57.27;96734.38;5025007;28;20050;-48
2022/09/30 02:06:05;;;;;;;10.43;7.23;;;9.40;99.90;;;12.62;57.60;96735.84;5024966;28;20046;-49
2022/09/30 02:09:02;;;;;;;10.30;7.03;;;9.40;99.90;;;12.64;57.39;96739.13;5024523;28;20045;-48
2022/09/30 02:11:37;;;;;;;13.07;6.90;;;9.50;99.90;;;12.66;57.44;96742.44;5023657;28;20050;-48
2022/09/30 02:14:16;;;;;;;16.57;11.13;;;9.50;99.90;;;12.69;57.45;96750.03;5024948;28;20050;-47
2022/09/30 02:17:38;;;;;;;15.00;9.23;;;9.50;99.90;;;12.66;57.44;96754.94;5025391;28;20050;-47
2022/09/30 02:20:21;;;;;;;23.90;15.23;;;9.50;99.90;;;12.73;57.52;96756.63;5027777;28;20053;-47
2022/09/30 02:23:02;;;;;;;29.57;19.57;;;9.50;99.90;;;12.75;57.13;96761.78;5025767;28;20056;-47
2022/09/30 02:25:39;;;;;;;19.10;14.37;;;9.50;99.90;;;12.75;57.35;96762.59;5024418;28;20058;-50
2022/09/30 02:28:16;;;;;;;14.53;12.23;;;9.50;99.90;;;12.72;57.46;96773.69;5024086;28;20060;-48
2022/09/30 02:30:49;;;;;;;15.33;11.07;;;9.40;99.90;;;12.65;57.36;96774.66;5024588;28;20045;-49
2022/09/30 02:33:31;;;;;;;15.65;10.57;;;9.30;99.90;;;12.62;57.84;96775.91;5026202;28;20060;-49
2022/09/30 02:36:06;;;;;;;13.53;9.30;;;9.30;99.90;;;12.63;57.92;96777.53;5024615;28;20045;-48
2022/09/30 02:38:43;;;;;;;15.87;8.53;;;9.30;99.90;;;12.64;57.86;96776.53;5023610;28;20046;-49
2022/09/30 02:41:22;;;;;;;12.70;8.43;;;9.30;99.90;;;12.63;57.54;96776.72;5025455;28;20328;-50
2022/09/30 02:43:52;;;;;;;12.33;7.90;;;9.30;99.90;;;12.60;57.76;96775.22;5024402;28;20052;-49
2022/09/30 02:46:30;;;;;;;12.00;9.47;;;9.30;99.90;;;12.60;57.52;96780.56;5024061;28;20056;-47
2022/09/30 02:49:25;;;;;;;15.33;8.67;;;9.30;99.90;;;12.54;57.64;96778.69;5024018;28;20237;-48
2022/09/30 02:52:01;;;;;;;12.13;7.55;;;9.30;99.90;;;12.45;57.79;96779.88;5024393;28;20054;-49
2022/09/30 02:55:24;;;;;;;10.40;8.13;;;9.10;99.90;;;12.38;57.55;96771.81;5024394;28;20049;-49
2022/09/30 02:58:09;;;;;;;12.37;8.20;;;9.10;99.90;;;12.39;57.61;96776.13;4988449;28;20081;-48
2022/09/30 03:00:38;;;;;;;13.73;8.93;;;9.10;99.90;;;12.33;57.37;96783.06;5021861;28;20244;-48
2022/09/30 03:03:37;;;;;;;13.33;9.33;;;9.00;99.90;;;12.29;57.64;96786.31;5023687;28;20052;-49
2022/09/30 03:06:06;;;;;;;11.67;8.10;;;9.00;99.90;;;12.28;56.98;96793.50;5024305;28;20243;-48
2022/09/30 03:08:34;;;;;;;14.17;9.03;;;9.00;99.90;;;12.26;57.42;96794.72;5023419;28;20266;-47
2022/09/30 03:11:04;;;;;;;11.27;8.17;;;9.00;99.90;;;12.19;57.46;96792.81;5022862;28;20050;-47
2022/09/30 03:13:58;;;;;;;14.23;8.90;;;8.90;99.90;;;12.14;57.71;96797.06;5024216;28;20064;-49
2022/09/30 03:17:04;;;;;;;11.53;7.63;;;8.90;99.90;;;12.08;57.61;96801.34;5024778;28;20301;-48
2022/09/30 03:20:07;;;;;;;12.37;7.80;;;8.90;99.90;;;12.10;57.28;96795.81;5024541;28;20339;-49
2022/09/30 03:22:44;;;;;;;12.67;7.73;;;8.90;99.90;;;12.10;57.42;96806.47;5024788;28;20048;-48
2022/09/30 03:25:15;;;;;;;12.63;8.07;;;8.90;99.90;;;12.06;57.93;96808.69;5024713;28;20343;-50
2022/09/30 03:28:15;;;;;;;13.77;8.80;;;8.90;99.90;;;12.06;57.71;96799.84;5024242;28;20041;-48
2022/09/30 03:31:36;;;;;;;9.73;7.77;;;8.90;99.90;;;12.02;57.42;96815.44;5023662;28;20056;-50
2022/09/30 03:34:42;;;;;;;15.67;9.50;;;8.80;99.90;;;11.98;57.14;96809.66;5023048;28;20058;-47
2022/09/30 03:38:15;;;;;;;12.20;8.33;;;8.70;99.90;;;11.92;57.44;96815.75;5024524;28;20076;-48
2022/09/30 03:40:52;;;;;;;11.13;7.93;;;8.70;99.90;;;11.94;57.68;96816.38;5024472;28;20255;-49
2022/09/30 03:43:40;;;;;;;12.43;8.03;;;8.70;99.90;;;11.92;57.85;96813.09;5022670;28;20054;-53
2022/09/30 03:46:26;;;;;;;15.67;8.43;;;8.60;99.90;;;11.88;57.94;96809.09;5023385;28;20053;-49
2022/09/30 03:49:00;;;;;;;14.10;8.93;;;8.60;99.90;;;11.89;57.72;96809.94;5023049;28;20049;-50
2022/09/30 03:51:28;;;;;;;15.75;9.88;;;8.60;99.90;;;11.89;57.72;96807.28;5022347;28;20050;-52
2022/09/30 03:53:57;;;;;;;12.80;9.03;;;8.70;99.90;;;11.90;57.98;96808.94;5022911;28;20049;-50
2022/09/30 03:56:28;;;;;;;12.93;8.07;;;8.70;99.90;;;11.89;57.62;96824.13;5022712;28;20066;-48
2022/09/30 03:58:57;;;;;;;17.87;10.47;;;8.60;99.90;;;11.86;58.02;96823.63;5023871;28;20045;-52
2022/09/30 04:01:25;;;;;;;15.33;9.03;;;8.50;99.90;;;11.90;57.67;96825.75;5023955;28;20052;-49
2022/09/30 04:03:53;;;;;;;17.10;10.43;;;8.60;99.90;;;11.93;57.95;96841.41;5023904;28;20048;-50
2022/09/30 04:06:24;;;;;;;15.63;10.63;;;8.70;99.90;;;11.95;57.55;96839.38;5023774;28;20239;-47
2022/09/30 04:08:52;;;;;;;16.87;11.57;;;8.70;99.90;;;11.97;57.78;96836.50;5006269;28;20045;-51
2022/09/30 04:11:20;;;;;;;17.10;9.37;;;8.70;99.90;;;12.01;57.62;96835.13;5023319;28;20064;-49
2022/09/30 04:13:48;;;;;;;16.00;11.87;;;8.80;99.90;;;12.05;57.55;96835.56;5024033;28;20243;-48
2022/09/30 04:16:16;;;;;;;16.23;12.80;;;8.80;99.90;;;12.06;57.38;96840.72;5023456;28;20046;-50
2022/09/30 04:18:44;;;;;;;15.40;10.67;;;8.80;99.90;;;12.05;57.69;96847.06;5023230;28;20041;-49
2022/09/30 04:21:13;;;;;;;17.47;12.13;;;8.80;99.90;;;12.00;57.79;96842.28;5022146;28;20046;-52
2022/09/30 04:23:42;;;;;;;20.97;11.97;;;8.80;99.90;;;11.99;57.32;96847.81;5023394;28;20245;-49
2022/09/30 04:26:14;;;;;;;16.17;11.00;;;8.80;99.90;;;11.97;57.92;96840.00;5023538;28;20037;-50
2022/09/30 04:28:42;;;;;;;18.33;10.53;;;8.80;99.90;;;11.98;57.60;96840.81;5021685;28;20399;-49
2022/09/30 04:31:12;;;;;;;12.70;9.87;;;8.70;99.90;;;11.98;57.41;96838.16;5022215;28;20053;-48
2022/09/30 04:33:40;;;;;;;16.53;11.27;;;8.70;99.90;;;11.96;57.68;96834.84;5023289;28;20056;-48
2022/09/30 04:36:09;;;;;;;14.57;10.23;;;8.70;99.90;;;11.95;57.53;96831.34;5023762;28;20050;-50
2022/09/30 04:38:37;;;;;;;21.47;13.37;;;8.70;99.90;;;11.95;57.58;96831.34;5022735;28;20058;-48
2022/09/30 04:41:06;;;;;;;14.73;9.97;;;8.70;99.90;;;11.95;57.78;96846.53;5023114;28;20050;-51
2022/09/30 04:43:34;;;;;;;22.37;12.97;;;8.70;99.90;;;11.93;57.92;96853.91;5023177;28;20240;-49
2022/09/30 04:46:02;;;;;;;31.87;18.13;;;8.70;99.90;;;11.96;58.51;96865.03;5023271;28;20056;-49
2022/09/30 04:48:30;;;;;;;18.73;12.50;;;8.80;99.90;;;12.00;58.28;96858.31;5021433;28;20052;-50
2022/09/30 04:51:01;;;;;;;18.63;11.47;;;8.80;99.90;;;12.04;58.57;96872.09;5022987;28;20052;-50
2022/09/30 04:53:29;;;;;;;20.10;10.23;;;8.80;99.90;;;12.06;58.44;96872.72;5022848;28;20046;-51
2022/09/30 04:56:00;;;;;;;18.27;11.77;;;8.80;99.90;;;12.07;58.17;96866.38;5022924;28;20060;-51
2022/09/30 04:58:28;;;;;;;17.00;9.93;;;8.90;99.90;;;12.10;58.51;96863.31;5022507;28;20251;-50
2022/09/30 05:01:09;;;;;;;18.93;11.27;;;8.90;99.90;;;12.15;57.91;96868.09;5022976;28;20050;-50
2022/09/30 05:03:38;;;;;;;25.37;14.17;;;8.90;99.90;;;12.17;58.01;96872.22;5022946;28;20072;-50
2022/09/30 05:06:07;;;;;;;26.20;15.30;;;8.90;99.90;;;12.20;57.94;96882.50;5022965;28;20054;-51
2022/09/30 05:08:35;;;;;;;21.30;11.80;;;9.00;99.90;;;12.26;58.05;96883.59;5023537;28;20066;-51
2022/09/30 05:11:11;;;;;;;13.40;9.33;;;9.00;99.90;;;12.29;57.99;96877.03;5022757;28;20217;-48
2022/09/30 05:13:39;;;;;;;16.20;11.33;;;9.10;99.90;;;12.31;57.80;96883.84;5022467;28;20062;-49
2022/09/30 05:16:09;;;;;;;14.67;10.20;;;9.10;99.90;;;12.33;58.33;96886.31;5022682;28;20125;-49
2022/09/30 05:18:44;;;;;;;19.13;11.53;;;9.10;99.90;;;12.33;58.32;96887.16;5022337;28;20050;-52
2022/09/30 05:21:19;;;;;;;45.53;26.03;;;9.10;99.90;;;12.39;58.36;96888.25;5022599;28;20048;-47
2022/09/30 05:23:47;;;;;;;29.07;16.70;;;9.20;99.90;;;12.41;58.31;96886.22;5023138;28;20041;-48
2022/09/30 05:26:15;;;;;;;31.93;19.37;;;9.20;99.90;;;12.45;57.71;96900.81;5022520;28;20354;-51
2022/09/30 05:28:43;;;;;;;36.93;19.30;;;9.20;99.90;;;12.48;57.96;96902.28;5022206;28;20045;-52
2022/09/30 05:31:12;;;;;;;18.20;11.80;;;9.30;99.90;;;12.47;57.89;96901.47;5022524;28;20072;-49
2022/09/30 05:33:40;;;;;;;16.30;10.93;;;9.20;99.90;;;12.49;58.33;96902.09;5022034;28;20276;-51
2022/09/30 05:36:13;;;;;;;13.90;10.23;;;9.30;99.90;;;12.48;58.13;96904.94;5021887;28;20070;-49
2022/09/30 05:38:41;;;;;;;20.00;10.87;;;9.20;99.90;;;12.47;58.26;96906.78;5023185;28;20068;-49
2022/09/30 05:41:13;;;;;;;16.40;8.87;;;9.20;99.90;;;12.48;58.44;96907.63;5022000;28;20045;-49
2022/09/30 05:43:46;;;;;;;14.43;8.83;;;9.20;99.90;;;12.48;58.41;96915.63;5022380;28;20058;-49
2022/09/30 05:46:19;;;;;;;19.33;11.85;;;9.30;99.90;;;12.53;58.00;96914.03;5022439;28;20201;-48
2022/09/30 05:48:47;;;;;;;18.33;10.87;;;9.30;99.90;;;12.55;58.38;96916.53;5037356;28;20231;-48
2022/09/30 05:51:14;;;;;;;19.37;11.90;;;9.30;99.90;;;12.56;58.01;96924.34;5022195;28;20050;-52
2022/09/30 05:53:43;;;;;;;15.23;10.67;;;9.40;99.90;;;12.58;58.15;96933.00;5021247;28;20064;-49
2022/09/30 05:56:11;;;;;;;18.40;10.37;;;9.40;99.90;;;12.58;58.44;96937.47;5022295;28;20079;-49
2022/09/30 05:58:40;;;;;;;16.37;11.27;;;9.40;99.90;;;12.59;58.31;96933.81;5020997;28;20046;-50
2022/09/30 06:01:12;;;;;;;18.63;11.73;;;9.40;99.90;;;12.60;58.28;96933.63;5018151;28;20117;-52
2022/09/30 06:03:45;;;;;;;17.30;10.90;;;9.30;99.90;;;12.59;58.25;96929.28;5021504;28;20042;-52
2022/09/30 06:06:14;;;;;;;21.40;12.17;;;9.40;99.90;;;12.58;58.09;96927.66;5022245;28;20042;-53
2022/09/30 06:08:43;;;;;;;18.03;11.23;;;9.30;99.90;;;12.57;58.23;96922.50;5021746;28;20045;-48
2022/09/30 06:11:16;;;;;;;20.70;13.60;;;9.40;99.90;;;12.57;58.09;96927.84;5021631;28;20075;-50
2022/09/30 06:13:46;;;;;;;20.10;13.27;;;9.40;99.90;;;12.53;57.84;96931.91;5004939;28;20062;-50
2022/09/30 06:16:17;;;;;;;16.93;11.50;;;9.30;99.90;;;12.48;58.13;96932.47;5022007;28;20049;-48
2022/09/30 06:18:45;;;;;;;21.10;13.67;;;9.30;99.90;;;12.47;58.43;96935.34;5021744;28;20096;-52
2022/09/30 06:21:15;;;;;;;24.23;14.13;;;9.30;99.90;;;12.45;58.29;96948.06;5021965;28;20052;-51
2022/09/30 06:23:44;;;;;;;28.37;15.10;;;9.30;99.90;;;12.46;58.71;96952.38;5022014;28;20054;-50
2022/09/30 06:26:13;;;;;;;26.23;17.20;;;9.30;99.90;;;12.46;58.70;96947.84;5022014;28;20370;-50
2022/09/30 06:28:41;;;;;;;24.97;15.50;;;9.30;99.90;;;12.48;58.61;96959.16;5021542;28;20064;-51
2022/09/30 06:31:10;;;;;;;29.47;18.27;;;9.40;99.90;;;12.49;58.66;96960.00;5021143;28;20244;-47
2022/09/30 06:33:38;;;;;;;25.43;16.23;;;9.40;99.90;;;12.50;58.67;96958.97;5021796;28;20247;-51
2022/09/30 06:36:06;;;;;;;26.13;18.00;;;9.40;99.90;;;12.49;58.54;96962.69;5021802;28;20050;-51
2022/09/30 06:38:35;;;;;;;25.30;17.90;;;9.40;99.90;;;12.50;58.47;96956.31;5021427;28;20054;-52
2022/09/30 06:41:04;;;;;;;21.00;14.30;;;9.40;99.90;;;12.53;58.69;96966.63;5021776;28;20044;-50
2022/09/30 06:43:33;;;;;;;21.60;13.90;;;9.40;99.90;;;12.55;58.53;96967.25;5021679;28;20042;-49
2022/09/30 06:46:12;;;;;;;21.53;14.40;;;9.50;99.90;;;12.56;58.68;96972.41;5022674;28;20052;-49
2022/09/30 06:48:53;;;;;;;20.87;12.13;;;9.50;99.90;;;12.57;58.73;96975.91;5024021;28;20251;-48
2022/09/30 06:51:37;;;;;;;23.40;14.73;;;9.50;99.90;;;12.61;58.05;96979.84;5026171;28;20058;-52
2022/09/30 06:54:06;;;;;;;23.67;15.27;;;9.50;99.90;;;12.59;58.35;96981.88;5025345;28;20060;-49
2022/09/30 06:56:35;;;;;;;24.30;13.43;;;9.40;99.90;;;12.60;58.64;96980.84;5024987;28;20048;-50
2022/09/30 06:59:03;;;;;;;25.70;14.90;;;9.50;99.90;;;12.61;58.30;96977.16;5025065;28;20054;-50
2022/09/30 07:01:31;;;;;;;22.63;14.57;;;9.50;99.90;;;12.60;58.38;96980.84;5024160;28;20217;-51
2022/09/30 07:04:01;;;;;;;20.77;14.73;;;9.50;99.90;;;12.63;58.68;96988.47;5025145;28;20046;-51
2022/09/30 07:06:30;;;;;;;21.43;14.10;;;9.50;99.90;;;12.64;58.80;96984.81;5023623;28;20243;-51
2022/09/30 07:08:57;;;;;;;20.87;13.87;;;9.60;99.90;;;12.66;58.97;96993.44;5023572;28;20085;-50
2022/09/30 07:11:25;;;;;;;19.63;13.87;;;9.60;99.90;;;12.68;58.97;96991.41;5024253;28;20060;-49
2022/09/30 07:13:54;;;;;;;18.83;13.10;;;9.60;99.90;;;12.71;58.68;96999.03;5025196;28;20056;-49
2022/09/30 07:16:24;;;;;;;18.23;12.87;;;9.70;99.90;;;12.73;59.13;96998.84;5024496;28;20361;-50
2022/09/30 07:18:53;;;;;;;20.57;13.50;;;9.70;99.90;;;12.74;58.88;97008.53;5024887;28;20056;-51
2022/09/30 07:21:21;;;;;;;16.73;12.10;;;9.70;99.90;;;12.76;58.95;97011.84;5023613;28;20042;-50
2022/09/30 07:23:51;;;;;;;17.07;11.40;;;9.70;99.90;;;12.77;58.96;97016.97;5024699;28;20244;-49
2022/09/30 07:26:23;;;;;;;17.63;11.00;;;9.70;99.90;;;12.78;58.88;97010.63;5024571;28;20244;-52
2022/09/30 07:28:51;;;;;;;16.27;11.17;;;9.70;99.90;;;12.79;59.11;97008.75;5024583;28;20072;-49
2022/09/30 07:31:23;;;;;;;15.80;10.47;;;9.70;99.90;;;12.82;58.85;97004.91;5024835;28;20049;-51
2022/09/30 07:34:05;;;;;;;16.83;11.47;;;9.70;99.90;;;12.84;59.16;97014.38;5024463;28;20247;-51
2022/09/30 07:36:36;;;;;;;23.75;12.52;;;9.80;99.90;;;12.88;58.60;97012.16;5024258;28;20147;-47
2022/09/30 07:39:08;;;;;;;16.43;10.53;;;9.80;99.90;;;12.87;58.93;97022.00;5024427;28;20049;-47
2022/09/30 07:41:38;;;;;;;17.63;10.53;;;9.80;99.90;;;12.88;58.69;97026.31;5025102;28;20046;-49
2022/09/30 07:44:13;;;;;;;19.63;12.00;;;9.80;99.90;;;12.90;58.76;97021.63;5007299;28;20054;-48
2022/09/30 07:46:43;;;;;;;32.97;19.97;;;9.80;99.90;;;12.92;58.77;97035.59;5023621;28;20080;-51
2022/09/30 07:49:24;;;;;;;27.90;17.97;;;9.80;99.90;;;12.93;58.65;97034.59;5023226;28;20050;-47
2022/09/30 07:51:57;;;;;;;20.23;14.23;;;9.80;99.90;;;12.96;58.71;97033.38;5024031;28;20050;-50
2022/09/30 07:54:29;;;;;;;23.88;13.65;;;9.90;99.90;;;12.99;59.03;97035.69;5024267;28;20053;-49
2022/09/30 07:57:00;;;;;;;19.27;11.30;;;9.90;99.90;;;13.00;59.00;97038.16;5023173;28;20053;-51
2022/09/30 07:59:43;;;;;;;21.83;10.43;;;9.90;99.90;;;13.05;58.85;97042.13;5024041;28;20049;-52
2022/09/30 08:02:17;;;;;;;16.30;11.27;;;10.00;99.90;;;13.13;59.38;97052.66;5022817;28;20247;-51
2022/09/30 08:04:46;;;;;;;17.40;10.27;;;10.10;99.90;;;13.26;58.92;97054.59;5022945;28;20053;-49
2022/09/30 08:07:16;;;;;;;17.20;11.07;;;10.20;99.90;;;13.37;59.11;97059.47;5023203;28;20213;-49
2022/09/30 08:09:44;;;;;;;13.50;9.47;;;10.30;99.90;;;13.45;58.86;97067.34;5023825;28;20257;-49
2022/09/30 08:12:12;;;;;;;16.87;10.77;;;10.40;99.90;;;13.57;59.14;97064.97;5022925;28;20046;-49
2022/09/30 08:14:40;;;;;;;12.60;10.23;;;10.60;99.90;;;13.69;59.02;97074.13;5023097;28;20054;-49
2022/09/30 08:17:08;;;;;;;16.00;9.90;;;10.60;99.90;;;13.80;58.84;97080.78;5023260;28;20243;-51
2022/09/30 08:19:37;;;;;;;17.00;9.73;;;10.70;99.90;;;13.86;58.62;97084.50;5023515;28;20046;-51
2022/09/30 08:22:05;;;;;;;16.00;10.13;;;10.80;99.90;;;13.93;58.38;97086.22;5022339;28;20057;-48
2022/09/30 08:24:33;;;;;;;18.43;11.97;;;10.80;99.90;;;13.96;58.53;97085.84;5023810;28;20042;-50
2022/09/30 08:27:01;;;;;;;15.50;11.10;;;10.90;99.90;;;14.05;58.53;97091.03;5021869;28;20045;-48
2022/09/30 08:29:29;;;;;;;17.17;11.00;;;10.90;99.90;;;14.12;58.27;97092.72;5022321;28;20046;-48
2022/09/30 08:32:17;;;;;;;16.15;11.57;;;11.00;99.90;;;14.21;58.29;97096.06;5023472;28;20316;-49
2022/09/30 08:34:45;;;;;;;15.20;9.87;;;11.00;99.90;;;14.24;58.08;97093.00;5023566;28;20060;-48
2022/09/30 08:37:13;;;;;;;18.45;11.45;;;11.10;99.90;;;14.32;58.22;97094.69;5022891;28;20049;-48
2022/09/30 08:39:42;;;;;;;14.57;10.38;;;11.20;99.90;;;14.40;57.98;97093.69;5023365;28;20056;-49
2022/09/30 08:42:24;;;;;;;15.03;10.07;;;11.30;99.90;;;14.46;57.93;97092.88;5023294;28;20049;-50
2022/09/30 08:46:06;;;;;;;14.40;10.00;;;11.40;99.90;;;14.47;57.93;97095.38;5022278;28;20052;-51
2022/09/30 08:48:49;;;;;;;14.43;10.03;;;11.50;99.90;;;14.63;57.75;97096.91;5022642;28;20049;-49
2022/09/30 08:51:44;;;;;;;17.50;11.00;;;11.60;99.90;;;14.67;57.85;97094.66;5023089;28;20073;-48
2022/09/30 08:54:21;;;;;;;14.68;10.55;;;11.70;99.90;;;14.76;57.44;97096.13;5022112;28;20065;-52
2022/09/30 08:56:50;;;;;;;14.50;10.20;;;11.80;99.90;;;14.85;57.19;97099.44;5021340;28;20050;-48
2022/09/30 08:59:28;;;;;;;13.95;10.18;;;11.90;99.90;;;14.92;57.08;97101.13;5022887;28;20049;-49
2022/09/30 09:02:20;;;;;;;17.27;11.77;;;11.90;99.90;;;14.99;57.16;97103.00;5020450;28;20238;-52
2022/09/30 09:04:53;;;;;;;16.13;11.27;;;12.00;99.90;;;15.02;56.60;97103.41;5020770;28;20076;-49
2022/09/30 09:07:32;;;;;;;17.90;11.75;;;12.00;99.90;;;15.08;56.77;97108.00;5021376;28;20052;-51
2022/09/30 09:10:22;;;;;;;15.63;10.87;;;12.10;99.90;;;15.18;56.43;97104.06;5022495;28;20064;-51
2022/09/30 09:13:08;;;;;;;15.13;11.32;;;12.20;99.90;;;15.24;56.59;97104.09;5022816;28;20056;-51
2022/09/30 09:16:17;;;;;;;15.45;11.18;;;12.20;99.90;;;15.29;56.29;97106.16;5023325;28;20192;-53
2022/09/30 09:19:10;;;;;;;19.50;12.70;;;12.30;99.90;;;15.30;56.45;97105.13;5019228;28;20063;-50
2022/09/30 09:22:00;;;;;;;18.02;10.68;;;12.30;99.90;;;15.34;56.56;97101.00;5022721;28;20064;-52
2022/09/30 09:24:39;;;;;;;16.77;10.95;;;12.30;99.90;;;15.38;56.27;97102.25;5022658;28;20339;-52
2022/09/30 09:27:53;;;;;;;14.23;11.30;;;12.40;99.90;;;15.39;56.43;97100.38;5021199;28;20045;-51
2022/09/30 09:30:24;;;;;;;17.58;11.68;;;12.40;99.90;;;15.41;56.13;97095.63;5022222;28;20046;-52
2022/09/30 09:32:57;;;;;;;19.63;11.55;;;12.40;99.90;;;15.40;55.98;97097.50;5022311;28;20056;-52
2022/09/30 09:35:54;;;;;;;14.97;11.07;;;12.50;99.90;;;15.39;56.27;97101.19;5021561;28;20042;-49
2022/09/30 09:38:54;;;;;;;14.73;10.50;;;12.40;99.90;;;15.38;56.24;97098.75;5021044;28;20112;-49
2022/09/30 09:41:32;;;;;;;16.65;10.38;;;12.40;99.90;;;15.38;56.61;97104.13;5022327;28;20052;-53
2022/09/30 09:44:18;;;;;;;16.38;11.95;;;12.40;99.90;;;15.37;56.19;97108.63;5021334;28;20045;-48
2022/09/30 09:47:04;;;;;;;16.50;11.30;;;12.40;99.90;;;15.38;56.17;97101.44;5022503;28;20062;-48
2022/09/30 09:49:35;;;;;;;15.05;10.73;;;12.50;99.90;;;15.38;56.13;97107.63;5021370;28;20046;-52
2022/09/30 09:52:12;;;;;;;14.07;10.52;;;12.50;99.90;;;15.38;55.85;97106.78;5022402;28;20046;-52
2022/09/30 09:54:51;;;;;;;13.77;10.60;;;12.40;99.90;;;15.39;56.05;97113.78;5022175;28;20068;-49
2022/09/30 09:57:23;;;;;;;18.35;11.88;;;12.50;99.90;;;15.41;55.93;97117.09;5021386;28;20056;-49
2022/09/30 09:59:58;;;;;;;16.73;12.23;;;12.50;99.90;;;15.44;55.64;97112.16;5021238;28;20060;-50
2022/09/30 10:02:30;;;;;;;12.25;10.40;;;12.50;99.90;;;15.45;55.84;97097.72;5022111;28;20056;-52
2022/09/30 10:05:02;;;;;;;14.88;13.18;;;12.60;99.90;;;15.46;55.83;97106.59;5022190;28;20052;-51
2022/09/30 10:07:32;;;;;;;14.23;11.50;;;12.60;99.90;;;15.49;56.05;97104.31;5021738;28;20042;-53
2022/09/30 10:10:16;;;;;;;16.35;12.07;;;12.70;99.90;;;15.52;56.17;97111.94;5021582;28;20049;-50
2022/09/30 10:12:50;;;;;;;17.75;12.63;;;12.70;99.90;;;15.51;56.03;97115.69;5021899;28;20050;-50
2022/09/30 10:15:25;;;;;;;18.50;11.30;;;12.70;99.90;;;15.44;55.59;97116.69;5022432;28;20060;-52
2022/09/30 10:17:58;;;;;;;19.00;11.07;;;12.60;99.90;;;15.43;55.81;97117.72;5019487;28;20050;-51
2022/09/30 10:20:35;;;;;;;12.60;9.13;;;12.50;99.90;;;15.43;55.63;97110.53;5022576;28;20052;-53
2022/09/30 10:23:30;;;;;;;14.00;8.90;;;12.50;99.90;;;15.47;55.65;97109.06;5024616;28;20054;-53
2022/09/30 10:26:26;;;;;;;11.85;8.30;;;12.60;99.90;;;15.52;55.73;97108.44;5027297;28;20045;-50
2022/09/30 10:29:03;;;;;;;12.88;10.00;;;12.60;99.90;;;15.58;54.84;97112.16;5025741;28;20038;-52
2022/09/30 10:31:41;;;;;;;11.80;9.57;;;12.70;99.90;;;15.53;54.54;97107.44;5024359;28;20260;-52
2022/09/30 10:34:29;;;;;;;11.75;7.80;;;12.70;99.90;;;15.56;54.71;97107.00;5024778;28;20366;-51
2022/09/30 10:37:01;;;;;;;11.32;7.43;;;12.80;99.90;;;15.63;54.52;97110.53;5025150;28;20053;-52
2022/09/30 10:39:35;;;;;;;14.40;7.85;;;12.80;99.90;;;15.70;54.08;97107.81;5008308;28;20049;-54
2022/09/30 10:42:06;;;;;;;8.68;7.10;;;12.90;99.90;;;15.79;53.78;97114.66;5024358;28;20046;-53
2022/09/30 10:44:55;;;;;;;10.88;7.32;;;13.00;99.90;;;15.85;53.95;97121.06;5025431;28;20056;-54
2022/09/30 10:47:25;;;;;;;11.57;6.80;;;13.10;99.90;;;15.91;53.35;97118.38;5023927;28;20235;-51
2022/09/30 10:50:04;;;;;;;9.45;7.43;;;13.20;99.90;;;15.96;53.47;97123.13;5025435;28;20045;-51
2022/09/30 10:52:55;;;;;;;12.60;7.63;;;13.20;99.90;;;16.03;53.37;97125.78;5024250;28;20045;-51
2022/09/30 10:55:33;;;;;;;11.80;7.47;;;13.30;99.90;;;16.06;53.70;97126.22;5024044;28;20046;-50